sensor_id;sensor_type;location;lat;lon;timestamp;temperature;humidity
23289;DHT22;11813;50.834;4.280;2023-08-07T00:01:35;13.50;99.90
23289;DHT22;11813;50.834;4.280;2023-08-07T00:04:01;13.60;99.90
23289;DHT22;11813;50.834;4.280;2023-08-07T00:06:26;13.60;99.90
23289;DHT22;11813;50.834;4.280;2023-08-07T00:08:52;13.50;99.90
23289;DHT22;11813;50.834;4.280;2023-08-07T00:11:18;13.50;99.90
23289;DHT22;11813;50.834;4.280;2023-08-07T00:13:43;13.40;99.90
23289;DHT22;11813;50.834;4.280;2023-08-07T00:16:09;13.50;99.90
23289;DHT22;11813;50.834;4.280;2023-08-07T00:18:35;13.50;99.90
23289;DHT22;11813;50.834;4.280;2023-08-07T00:21:01;13.50;99.90
23289;DHT22;11813;50.834;4.280;2023-08-07T00:23:27;13.50;99.90
23289;DHT22;11813;50.834;4.280;2023-08-07T00:25:53;13.60;99.90
23289;DHT22;11813;50.834;4.280;2023-08-07T00:28:18;13.60;99.90
23289;DHT22;11813;50.834;4.280;2023-08-07T00:30:44;13.60;99.90
23289;DHT22;11813;50.834;4.280;2023-08-07T00:33:09;13.80;99.90
23289;DHT22;11813;50.834;4.280;2023-08-07T00:35:35;13.80;99.90
23289;DHT22;11813;50.834;4.280;2023-08-07T00:38:01;13.80;99.90
23289;DHT22;11813;50.834;4.280;2023-08-07T00:40:26;13.90;99.90
23289;DHT22;11813;50.834;4.280;2023-08-07T00:42:52;13.90;99.90
23289;DHT22;11813;50.834;4.280;2023-08-07T00:45:18;14.00;99.90
23289;DHT22;11813;50.834;4.280;2023-08-07T00:47:44;13.90;99.90
23289;DHT22;11813;50.834;4.280;2023-08-07T00:50:10;13.80;99.90
23289;DHT22;11813;50.834;4.280;2023-08-07T00:52:36;13.70;99.90
23289;DHT22;11813;50.834;4.280;2023-08-07T00:55:03;13.70;99.90
23289;DHT22;11813;50.834;4.280;2023-08-07T00:57:29;13.70;99.90
23289;DHT22;11813;50.834;4.280;2023-08-07T00:59:55;13.70;99.90
23289;DHT22;11813;50.834;4.280;2023-08-07T01:02:21;13.60;99.90
23289;DHT22;11813;50.834;4.280;2023-08-07T01:04:47;13.60;99.90
23289;DHT22;11813;50.834;4.280;2023-08-07T01:07:12;13.50;99.90
23289;DHT22;11813;50.834;4.280;2023-08-07T01:09:38;13.40;99.90
23289;DHT22;11813;50.834;4.280;2023-08-07T01:14:49;13.50;99.90
23289;DHT22;11813;50.834;4.280;2023-08-07T01:17:18;13.40;99.90
23289;DHT22;11813;50.834;4.280;2023-08-07T01:19:45;13.30;99.90
23289;DHT22;11813;50.834;4.280;2023-08-07T01:22:16;13.30;99.90
23289;DHT22;11813;50.834;4.280;2023-08-07T01:24:49;13.40;99.90
23289;DHT22;11813;50.834;4.280;2023-08-07T01:35:11;13.20;99.90
23289;DHT22;11813;50.834;4.280;2023-08-07T01:37:40;13.30;99.90
23289;DHT22;11813;50.834;4.280;2023-08-07T01:40:07;13.30;99.90
23289;DHT22;11813;50.834;4.280;2023-08-07T01:42:34;13.30;99.90
23289;DHT22;11813;50.834;4.280;2023-08-07T01:45:00;13.20;99.90
23289;DHT22;11813;50.834;4.280;2023-08-07T01:47:26;13.30;99.90
23289;DHT22;11813;50.834;4.280;2023-08-07T01:49:51;13.30;99.90
23289;DHT22;11813;50.834;4.280;2023-08-07T01:52:17;13.30;99.90
23289;DHT22;11813;50.834;4.280;2023-08-07T01:54:43;13.40;99.90
23289;DHT22;11813;50.834;4.280;2023-08-07T01:57:08;13.40;99.90
23289;DHT22;11813;50.834;4.280;2023-08-07T01:59:34;13.50;99.90
23289;DHT22;11813;50.834;4.280;2023-08-07T02:02:00;13.40;99.90
23289;DHT22;11813;50.834;4.280;2023-08-07T02:04:25;13.50;99.90
23289;DHT22;11813;50.834;4.280;2023-08-07T02:06:51;13.50;99.90
23289;DHT22;11813;50.834;4.280;2023-08-07T02:09:16;13.30;99.90
23289;DHT22;11813;50.834;4.280;2023-08-07T02:11:42;13.30;99.90
23289;DHT22;11813;50.834;4.280;2023-08-07T02:14:08;13.30;99.90
23289;DHT22;11813;50.834;4.280;2023-08-07T02:16:33;13.30;99.90
23289;DHT22;11813;50.834;4.280;2023-08-07T02:18:59;13.30;99.90
23289;DHT22;11813;50.834;4.280;2023-08-07T02:21:25;13.30;99.90
23289;DHT22;11813;50.834;4.280;2023-08-07T02:23:50;13.30;99.90
23289;DHT22;11813;50.834;4.280;2023-08-07T02:26:16;13.30;99.90
23289;DHT22;11813;50.834;4.280;2023-08-07T02:28:41;13.20;99.90
23289;DHT22;11813;50.834;4.280;2023-08-07T02:31:07;13.10;99.90
23289;DHT22;11813;50.834;4.280;2023-08-07T02:33:33;13.20;99.90
23289;DHT22;11813;50.834;4.280;2023-08-07T02:35:58;13.20;99.90
23289;DHT22;11813;50.834;4.280;2023-08-07T02:38:25;13.20;99.90
23289;DHT22;11813;50.834;4.280;2023-08-07T02:40:51;13.30;99.90
23289;DHT22;11813;50.834;4.280;2023-08-07T02:43:16;13.30;99.90
23289;DHT22;11813;50.834;4.280;2023-08-07T02:45:42;13.30;99.90
23289;DHT22;11813;50.834;4.280;2023-08-07T02:48:08;13.30;99.90
23289;DHT22;11813;50.834;4.280;2023-08-07T02:50:33;13.30;99.90
23289;DHT22;11813;50.834;4.280;2023-08-07T02:53:00;13.30;99.90
23289;DHT22;11813;50.834;4.280;2023-08-07T02:55:26;13.30;99.90
23289;DHT22;11813;50.834;4.280;2023-08-07T02:57:51;13.30;99.90
23289;DHT22;11813;50.834;4.280;2023-08-07T03:00:17;13.30;99.90
23289;DHT22;11813;50.834;4.280;2023-08-07T03:02:43;13.30;99.90
23289;DHT22;11813;50.834;4.280;2023-08-07T03:05:08;13.20;99.90
23289;DHT22;11813;50.834;4.280;2023-08-07T03:07:34;13.20;99.90
23289;DHT22;11813;50.834;4.280;2023-08-07T03:10:00;13.30;99.90
23289;DHT22;11813;50.834;4.280;2023-08-07T03:12:25;13.20;99.90
23289;DHT22;11813;50.834;4.280;2023-08-07T03:14:51;13.20;99.90
23289;DHT22;11813;50.834;4.280;2023-08-07T03:17:16;13.30;99.90
23289;DHT22;11813;50.834;4.280;2023-08-07T03:19:43;13.30;99.90
23289;DHT22;11813;50.834;4.280;2023-08-07T03:22:09;13.30;99.90
23289;DHT22;11813;50.834;4.280;2023-08-07T03:24:34;13.20;99.90
23289;DHT22;11813;50.834;4.280;2023-08-07T03:27:00;13.20;99.90
23289;DHT22;11813;50.834;4.280;2023-08-07T03:29:26;13.20;99.90
23289;DHT22;11813;50.834;4.280;2023-08-07T03:31:52;13.20;99.90
23289;DHT22;11813;50.834;4.280;2023-08-07T03:34:17;13.20;99.90
23289;DHT22;11813;50.834;4.280;2023-08-07T03:36:44;13.10;99.90
23289;DHT22;11813;50.834;4.280;2023-08-07T03:39:09;13.20;99.90
23289;DHT22;11813;50.834;4.280;2023-08-07T03:41:37;13.20;99.90
23289;DHT22;11813;50.834;4.280;2023-08-07T03:44:03;13.30;99.90
23289;DHT22;11813;50.834;4.280;2023-08-07T03:46:29;13.30;99.90
23289;DHT22;11813;50.834;4.280;2023-08-07T03:48:54;13.30;99.90
23289;DHT22;11813;50.834;4.280;2023-08-07T03:51:20;13.30;99.90
23289;DHT22;11813;50.834;4.280;2023-08-07T03:53:46;13.20;99.90
23289;DHT22;11813;50.834;4.280;2023-08-07T03:56:11;13.20;99.90
23289;DHT22;11813;50.834;4.280;2023-08-07T03:58:37;13.20;99.90
23289;DHT22;11813;50.834;4.280;2023-08-07T04:01:02;13.10;99.90
23289;DHT22;11813;50.834;4.280;2023-08-07T04:03:28;13.10;99.90
23289;DHT22;11813;50.834;4.280;2023-08-07T04:05:54;13.10;99.90
23289;DHT22;11813;50.834;4.280;2023-08-07T04:08:21;13.10;99.90
23289;DHT22;11813;50.834;4.280;2023-08-07T04:11:00;13.10;99.90
23289;DHT22;11813;50.834;4.280;2023-08-07T04:13:27;13.10;99.90
23289;DHT22;11813;50.834;4.280;2023-08-07T04:15:53;13.10;99.90
23289;DHT22;11813;50.834;4.280;2023-08-07T04:18:19;13.00;99.90
23289;DHT22;11813;50.834;4.280;2023-08-07T04:20:54;13.10;99.90
23289;DHT22;11813;50.834;4.280;2023-08-07T04:23:20;13.10;99.90
23289;DHT22;11813;50.834;4.280;2023-08-07T04:25:49;13.10;99.90
23289;DHT22;11813;50.834;4.280;2023-08-07T04:28:15;13.10;99.90
23289;DHT22;11813;50.834;4.280;2023-08-07T04:30:42;13.00;99.90
23289;DHT22;11813;50.834;4.280;2023-08-07T04:33:08;13.00;99.90
23289;DHT22;11813;50.834;4.280;2023-08-07T04:35:34;13.00;99.90
23289;DHT22;11813;50.834;4.280;2023-08-07T04:38:00;12.90;99.90
23289;DHT22;11813;50.834;4.280;2023-08-07T04:40:26;12.90;99.90
23289;DHT22;11813;50.834;4.280;2023-08-07T04:42:52;13.00;99.90
23289;DHT22;11813;50.834;4.280;2023-08-07T04:45:18;13.00;99.90
23289;DHT22;11813;50.834;4.280;2023-08-07T04:47:43;12.90;99.90
23289;DHT22;11813;50.834;4.280;2023-08-07T04:50:09;12.90;99.90
23289;DHT22;11813;50.834;4.280;2023-08-07T04:52:35;12.70;99.90
23289;DHT22;11813;50.834;4.280;2023-08-07T04:55:01;12.70;99.90
23289;DHT22;11813;50.834;4.280;2023-08-07T04:57:27;12.70;99.90
23289;DHT22;11813;50.834;4.280;2023-08-07T04:59:52;12.80;99.90
23289;DHT22;11813;50.834;4.280;2023-08-07T05:02:19;12.80;99.90
23289;DHT22;11813;50.834;4.280;2023-08-07T05:04:45;12.90;99.90
23289;DHT22;11813;50.834;4.280;2023-08-07T05:07:11;12.90;99.90
23289;DHT22;11813;50.834;4.280;2023-08-07T05:09:36;13.00;99.90
23289;DHT22;11813;50.834;4.280;2023-08-07T05:12:02;12.90;99.90
23289;DHT22;11813;50.834;4.280;2023-08-07T05:14:29;13.00;99.90
23289;DHT22;11813;50.834;4.280;2023-08-07T05:16:55;13.10;99.90
23289;DHT22;11813;50.834;4.280;2023-08-07T05:19:21;13.10;99.90
23289;DHT22;11813;50.834;4.280;2023-08-07T05:21:47;13.00;99.90
23289;DHT22;11813;50.834;4.280;2023-08-07T05:24:16;13.10;99.90
23289;DHT22;11813;50.834;4.280;2023-08-07T05:26:41;13.20;99.90
23289;DHT22;11813;50.834;4.280;2023-08-07T05:29:07;13.30;99.90
23289;DHT22;11813;50.834;4.280;2023-08-07T05:31:33;13.20;99.90
23289;DHT22;11813;50.834;4.280;2023-08-07T05:33:59;13.30;99.90
23289;DHT22;11813;50.834;4.280;2023-08-07T05:36:25;13.30;99.90
23289;DHT22;11813;50.834;4.280;2023-08-07T05:38:51;13.30;99.90
23289;DHT22;11813;50.834;4.280;2023-08-07T05:41:17;13.50;99.90
23289;DHT22;11813;50.834;4.280;2023-08-07T05:43:42;13.40;99.90
23289;DHT22;11813;50.834;4.280;2023-08-07T05:46:08;13.50;99.90
23289;DHT22;11813;50.834;4.280;2023-08-07T05:48:33;13.60;99.90
23289;DHT22;11813;50.834;4.280;2023-08-07T05:50:59;13.50;99.90
23289;DHT22;11813;50.834;4.280;2023-08-07T05:53:25;13.70;99.90
23289;DHT22;11813;50.834;4.280;2023-08-07T05:55:50;13.80;99.90
23289;DHT22;11813;50.834;4.280;2023-08-07T05:58:16;13.80;99.90
23289;DHT22;11813;50.834;4.280;2023-08-07T06:00:42;13.90;99.90
23289;DHT22;11813;50.834;4.280;2023-08-07T06:03:07;14.00;99.90
23289;DHT22;11813;50.834;4.280;2023-08-07T06:05:34;14.00;99.90
23289;DHT22;11813;50.834;4.280;2023-08-07T06:08:00;14.20;99.90
23289;DHT22;11813;50.834;4.280;2023-08-07T06:10:26;14.30;99.90
23289;DHT22;11813;50.834;4.280;2023-08-07T06:12:52;14.40;99.90
23289;DHT22;11813;50.834;4.280;2023-08-07T06:15:17;14.40;99.90
23289;DHT22;11813;50.834;4.280;2023-08-07T06:17:43;14.50;99.90
23289;DHT22;11813;50.834;4.280;2023-08-07T06:20:09;14.60;99.90
23289;DHT22;11813;50.834;4.280;2023-08-07T06:22:36;14.70;99.90
23289;DHT22;11813;50.834;4.280;2023-08-07T06:25:02;14.80;99.90
23289;DHT22;11813;50.834;4.280;2023-08-07T06:27:28;14.90;99.90
23289;DHT22;11813;50.834;4.280;2023-08-07T06:29:53;15.00;99.90
23289;DHT22;11813;50.834;4.280;2023-08-07T06:32:19;15.20;99.90
23289;DHT22;11813;50.834;4.280;2023-08-07T06:34:45;15.40;99.90
23289;DHT22;11813;50.834;4.280;2023-08-07T06:37:12;15.50;99.90
23289;DHT22;11813;50.834;4.280;2023-08-07T06:39:37;15.60;99.90
23289;DHT22;11813;50.834;4.280;2023-08-07T06:42:03;15.60;99.90
23289;DHT22;11813;50.834;4.280;2023-08-07T06:44:29;15.70;99.90
23289;DHT22;11813;50.834;4.280;2023-08-07T06:46:55;15.80;99.90
23289;DHT22;11813;50.834;4.280;2023-08-07T06:49:21;15.70;99.90
23289;DHT22;11813;50.834;4.280;2023-08-07T06:51:46;15.80;99.90
23289;DHT22;11813;50.834;4.280;2023-08-07T06:54:12;15.90;99.90
23289;DHT22;11813;50.834;4.280;2023-08-07T06:56:37;16.00;99.90
23289;DHT22;11813;50.834;4.280;2023-08-07T06:59:06;16.10;99.90
23289;DHT22;11813;50.834;4.280;2023-08-07T07:01:31;16.10;99.90
23289;DHT22;11813;50.834;4.280;2023-08-07T07:03:57;16.00;99.90
23289;DHT22;11813;50.834;4.280;2023-08-07T07:06:23;16.00;99.90
23289;DHT22;11813;50.834;4.280;2023-08-07T07:08:51;15.90;99.90
23289;DHT22;11813;50.834;4.280;2023-08-07T07:11:19;16.00;99.90
23289;DHT22;11813;50.834;4.280;2023-08-07T07:13:46;16.00;99.90
23289;DHT22;11813;50.834;4.280;2023-08-07T07:16:11;16.10;99.90
23289;DHT22;11813;50.834;4.280;2023-08-07T07:18:38;16.20;99.90
23289;DHT22;11813;50.834;4.280;2023-08-07T07:21:04;16.10;99.90
23289;DHT22;11813;50.834;4.280;2023-08-07T07:23:30;16.20;99.90
23289;DHT22;11813;50.834;4.280;2023-08-07T07:25:56;16.30;99.90
23289;DHT22;11813;50.834;4.280;2023-08-07T07:28:23;16.30;99.90
23289;DHT22;11813;50.834;4.280;2023-08-07T07:30:49;16.50;99.90
23289;DHT22;11813;50.834;4.280;2023-08-07T07:33:15;16.60;99.90
23289;DHT22;11813;50.834;4.280;2023-08-07T07:35:41;16.60;99.90
23289;DHT22;11813;50.834;4.280;2023-08-07T07:38:07;16.70;99.90
23289;DHT22;11813;50.834;4.280;2023-08-07T07:40:34;16.70;99.90
23289;DHT22;11813;50.834;4.280;2023-08-07T07:43:00;16.60;99.90
23289;DHT22;11813;50.834;4.280;2023-08-07T07:45:25;16.50;99.90
23289;DHT22;11813;50.834;4.280;2023-08-07T07:47:51;16.50;99.90
23289;DHT22;11813;50.834;4.280;2023-08-07T07:50:17;16.60;99.90
23289;DHT22;11813;50.834;4.280;2023-08-07T07:52:42;16.70;99.90
23289;DHT22;11813;50.834;4.280;2023-08-07T07:55:09;16.80;99.90
23289;DHT22;11813;50.834;4.280;2023-08-07T07:57:35;16.80;99.90
23289;DHT22;11813;50.834;4.280;2023-08-07T08:00:01;17.00;99.90
23289;DHT22;11813;50.834;4.280;2023-08-07T08:02:28;17.10;99.90
23289;DHT22;11813;50.834;4.280;2023-08-07T08:04:53;17.20;99.90
23289;DHT22;11813;50.834;4.280;2023-08-07T08:07:19;17.20;99.90
23289;DHT22;11813;50.834;4.280;2023-08-07T08:09:45;17.10;99.90
23289;DHT22;11813;50.834;4.280;2023-08-07T08:12:10;17.20;99.90
23289;DHT22;11813;50.834;4.280;2023-08-07T08:14:36;17.40;99.90
23289;DHT22;11813;50.834;4.280;2023-08-07T08:17:02;17.40;99.90
23289;DHT22;11813;50.834;4.280;2023-08-07T08:19:27;17.30;99.90
23289;DHT22;11813;50.834;4.280;2023-08-07T08:21:53;17.40;99.90
23289;DHT22;11813;50.834;4.280;2023-08-07T08:24:19;17.50;99.90
23289;DHT22;11813;50.834;4.280;2023-08-07T08:26:45;17.70;99.90
23289;DHT22;11813;50.834;4.280;2023-08-07T08:29:14;17.80;99.90
23289;DHT22;11813;50.834;4.280;2023-08-07T08:31:40;17.80;99.90
23289;DHT22;11813;50.834;4.280;2023-08-07T08:34:05;17.80;99.90
23289;DHT22;11813;50.834;4.280;2023-08-07T08:36:31;17.90;99.90
23289;DHT22;11813;50.834;4.280;2023-08-07T08:38:57;17.80;99.90
23289;DHT22;11813;50.834;4.280;2023-08-07T08:41:23;17.60;99.90
23289;DHT22;11813;50.834;4.280;2023-08-07T08:43:50;17.60;99.90
23289;DHT22;11813;50.834;4.280;2023-08-07T08:46:20;17.60;99.90
23289;DHT22;11813;50.834;4.280;2023-08-07T08:48:50;17.90;99.90
23289;DHT22;11813;50.834;4.280;2023-08-07T08:51:16;18.20;99.90
23289;DHT22;11813;50.834;4.280;2023-08-07T08:53:45;18.30;99.90
23289;DHT22;11813;50.834;4.280;2023-08-07T08:56:11;18.50;99.90
23289;DHT22;11813;50.834;4.280;2023-08-07T08:58:38;18.50;99.90
23289;DHT22;11813;50.834;4.280;2023-08-07T09:01:04;18.10;99.90
23289;DHT22;11813;50.834;4.280;2023-08-07T09:03:32;18.00;99.90
23289;DHT22;11813;50.834;4.280;2023-08-07T09:05:58;18.10;99.90
23289;DHT22;11813;50.834;4.280;2023-08-07T09:08:27;18.30;99.90
23289;DHT22;11813;50.834;4.280;2023-08-07T09:10:55;18.50;99.90
23289;DHT22;11813;50.834;4.280;2023-08-07T09:13:23;18.50;99.90
23289;DHT22;11813;50.834;4.280;2023-08-07T09:15:50;18.50;99.90
23289;DHT22;11813;50.834;4.280;2023-08-07T09:18:17;18.60;99.90
23289;DHT22;11813;50.834;4.280;2023-08-07T09:20:44;18.80;99.90
23289;DHT22;11813;50.834;4.280;2023-08-07T09:23:09;18.90;99.90
23289;DHT22;11813;50.834;4.280;2023-08-07T09:25:35;18.80;99.90
23289;DHT22;11813;50.834;4.280;2023-08-07T09:28:07;18.90;99.90
23289;DHT22;11813;50.834;4.280;2023-08-07T09:30:34;18.90;99.90
23289;DHT22;11813;50.834;4.280;2023-08-07T09:33:01;19.10;99.90
23289;DHT22;11813;50.834;4.280;2023-08-07T09:35:29;19.20;99.90
23289;DHT22;11813;50.834;4.280;2023-08-07T09:37:56;19.30;99.90
23289;DHT22;11813;50.834;4.280;2023-08-07T09:40:22;19.20;99.90
23289;DHT22;11813;50.834;4.280;2023-08-07T09:42:53;18.80;99.90
23289;DHT22;11813;50.834;4.280;2023-08-07T09:45:23;18.50;99.90
23289;DHT22;11813;50.834;4.280;2023-08-07T09:48:02;18.40;99.90
23289;DHT22;11813;50.834;4.280;2023-08-07T09:50:29;18.40;99.90
23289;DHT22;11813;50.834;4.280;2023-08-07T09:52:56;18.60;99.90
23289;DHT22;11813;50.834;4.280;2023-08-07T09:55:23;18.90;99.90
23289;DHT22;11813;50.834;4.280;2023-08-07T09:57:49;19.10;99.90
23289;DHT22;11813;50.834;4.280;2023-08-07T10:00:15;19.40;99.90
23289;DHT22;11813;50.834;4.280;2023-08-07T10:02:42;19.60;99.90
23289;DHT22;11813;50.834;4.280;2023-08-07T10:05:10;19.70;99.90
23289;DHT22;11813;50.834;4.280;2023-08-07T10:07:37;19.90;99.90
23289;DHT22;11813;50.834;4.280;2023-08-07T10:10:04;19.80;99.90
23289;DHT22;11813;50.834;4.280;2023-08-07T10:12:30;19.70;99.90
23289;DHT22;11813;50.834;4.280;2023-08-07T10:14:56;19.60;99.90
23289;DHT22;11813;50.834;4.280;2023-08-07T10:17:24;19.90;99.90
23289;DHT22;11813;50.834;4.280;2023-08-07T10:19:51;20.10;99.90
23289;DHT22;11813;50.834;4.280;2023-08-07T10:22:19;20.20;99.90
23289;DHT22;11813;50.834;4.280;2023-08-07T10:24:47;20.00;99.90
23289;DHT22;11813;50.834;4.280;2023-08-07T10:27:14;19.70;99.90
23289;DHT22;11813;50.834;4.280;2023-08-07T10:29:41;19.60;99.90
23289;DHT22;11813;50.834;4.280;2023-08-07T10:32:08;19.70;99.90
23289;DHT22;11813;50.834;4.280;2023-08-07T10:34:34;19.70;99.90
23289;DHT22;11813;50.834;4.280;2023-08-07T10:37:00;19.90;99.90
23289;DHT22;11813;50.834;4.280;2023-08-07T10:39:25;20.10;99.90
23289;DHT22;11813;50.834;4.280;2023-08-07T10:41:55;20.30;99.90
23289;DHT22;11813;50.834;4.280;2023-08-07T10:44:24;20.30;99.90
23289;DHT22;11813;50.834;4.280;2023-08-07T10:46:54;20.10;99.90
23289;DHT22;11813;50.834;4.280;2023-08-07T10:49:36;19.80;99.90
23289;DHT22;11813;50.834;4.280;2023-08-07T10:52:13;19.40;99.90
23289;DHT22;11813;50.834;4.280;2023-08-07T10:54:48;19.20;99.90
23289;DHT22;11813;50.834;4.280;2023-08-07T10:57:15;19.30;99.90
23289;DHT22;11813;50.834;4.280;2023-08-07T10:59:48;19.60;99.90
23289;DHT22;11813;50.834;4.280;2023-08-07T11:02:25;19.90;99.90
23289;DHT22;11813;50.834;4.280;2023-08-07T11:04:52;20.20;99.90
23289;DHT22;11813;50.834;4.280;2023-08-07T11:07:40;20.40;99.90
23289;DHT22;11813;50.834;4.280;2023-08-07T11:10:06;20.90;99.90
23289;DHT22;11813;50.834;4.280;2023-08-07T11:12:31;21.30;99.90
23289;DHT22;11813;50.834;4.280;2023-08-07T11:14:57;21.10;99.90
23289;DHT22;11813;50.834;4.280;2023-08-07T11:17:26;20.90;99.90
23289;DHT22;11813;50.834;4.280;2023-08-07T11:19:53;20.90;99.90
23289;DHT22;11813;50.834;4.280;2023-08-07T11:22:20;21.20;99.90
23289;DHT22;11813;50.834;4.280;2023-08-07T11:24:46;21.20;99.90
23289;DHT22;11813;50.834;4.280;2023-08-07T11:27:12;20.80;99.90
23289;DHT22;11813;50.834;4.280;2023-08-07T11:29:38;20.70;99.90
23289;DHT22;11813;50.834;4.280;2023-08-07T11:32:04;20.30;99.90
23289;DHT22;11813;50.834;4.280;2023-08-07T11:34:30;20.20;99.90
23289;DHT22;11813;50.834;4.280;2023-08-07T11:36:56;20.50;99.90
23289;DHT22;11813;50.834;4.280;2023-08-07T11:39:23;20.70;99.90
23289;DHT22;11813;50.834;4.280;2023-08-07T11:41:52;21.00;99.90
23289;DHT22;11813;50.834;4.280;2023-08-07T11:44:19;21.00;99.90
23289;DHT22;11813;50.834;4.280;2023-08-07T11:46:44;21.10;99.90
23289;DHT22;11813;50.834;4.280;2023-08-07T11:49:10;21.20;99.90
23289;DHT22;11813;50.834;4.280;2023-08-07T11:51:36;21.40;99.90
23289;DHT22;11813;50.834;4.280;2023-08-07T11:54:03;21.30;99.90
23289;DHT22;11813;50.834;4.280;2023-08-07T11:56:29;21.50;99.90
23289;DHT22;11813;50.834;4.280;2023-08-07T11:58:54;21.80;99.90
23289;DHT22;11813;50.834;4.280;2023-08-07T12:01:24;21.90;99.90
23289;DHT22;11813;50.834;4.280;2023-08-07T12:04:09;21.40;99.90
23289;DHT22;11813;50.834;4.280;2023-08-07T12:06:35;21.20;99.90
23289;DHT22;11813;50.834;4.280;2023-08-07T12:09:02;21.40;99.90
23289;DHT22;11813;50.834;4.280;2023-08-07T12:11:29;21.40;99.90
23289;DHT22;11813;50.834;4.280;2023-08-07T12:13:55;21.20;99.90
23289;DHT22;11813;50.834;4.280;2023-08-07T12:16:21;21.20;99.90
23289;DHT22;11813;50.834;4.280;2023-08-07T12:18:51;21.10;99.90
23289;DHT22;11813;50.834;4.280;2023-08-07T12:21:21;20.80;99.90
23289;DHT22;11813;50.834;4.280;2023-08-07T12:23:51;20.80;99.90
23289;DHT22;11813;50.834;4.280;2023-08-07T12:26:17;21.10;99.90
23289;DHT22;11813;50.834;4.280;2023-08-07T12:28:43;21.50;99.90
23289;DHT22;11813;50.834;4.280;2023-08-07T12:31:09;22.00;99.90
23289;DHT22;11813;50.834;4.280;2023-08-07T12:33:35;22.10;99.90
23289;DHT22;11813;50.834;4.280;2023-08-07T12:36:01;22.20;99.90
23289;DHT22;11813;50.834;4.280;2023-08-07T12:38:28;22.40;99.90
23289;DHT22;11813;50.834;4.280;2023-08-07T12:40:54;22.50;99.90
23289;DHT22;11813;50.834;4.280;2023-08-07T12:43:19;22.20;99.90
23289;DHT22;11813;50.834;4.280;2023-08-07T12:45:45;22.00;99.90
23289;DHT22;11813;50.834;4.280;2023-08-07T12:48:11;21.70;99.90
23289;DHT22;11813;50.834;4.280;2023-08-07T12:50:37;21.20;99.90
23289;DHT22;11813;50.834;4.280;2023-08-07T12:53:03;20.80;99.90
23289;DHT22;11813;50.834;4.280;2023-08-07T12:55:29;20.60;99.90
23289;DHT22;11813;50.834;4.280;2023-08-07T12:57:55;20.60;99.90
23289;DHT22;11813;50.834;4.280;2023-08-07T13:00:22;20.80;99.90
23289;DHT22;11813;50.834;4.280;2023-08-07T13:02:49;20.80;99.90
23289;DHT22;11813;50.834;4.280;2023-08-07T13:05:16;20.50;99.90
23289;DHT22;11813;50.834;4.280;2023-08-07T13:07:45;20.50;99.90
23289;DHT22;11813;50.834;4.280;2023-08-07T13:10:14;20.40;99.90
23289;DHT22;11813;50.834;4.280;2023-08-07T13:12:41;20.60;99.90
23289;DHT22;11813;50.834;4.280;2023-08-07T13:15:09;21.00;99.90
23289;DHT22;11813;50.834;4.280;2023-08-07T13:17:35;21.40;99.90
23289;DHT22;11813;50.834;4.280;2023-08-07T13:20:02;21.80;99.90
23289;DHT22;11813;50.834;4.280;2023-08-07T13:22:36;22.00;99.90
23289;DHT22;11813;50.834;4.280;2023-08-07T13:25:02;21.60;99.90
23289;DHT22;11813;50.834;4.280;2023-08-07T13:27:35;21.20;99.90
23289;DHT22;11813;50.834;4.280;2023-08-07T13:30:02;21.10;99.90
23289;DHT22;11813;50.834;4.280;2023-08-07T13:32:28;21.10;99.90
23289;DHT22;11813;50.834;4.280;2023-08-07T13:34:54;21.20;99.90
23289;DHT22;11813;50.834;4.280;2023-08-07T13:37:20;21.40;99.90
23289;DHT22;11813;50.834;4.280;2023-08-07T13:39:46;21.30;99.90
23289;DHT22;11813;50.834;4.280;2023-08-07T13:42:15;21.40;99.90
23289;DHT22;11813;50.834;4.280;2023-08-07T13:44:40;21.60;99.90
23289;DHT22;11813;50.834;4.280;2023-08-07T13:47:06;22.20;99.90
23289;DHT22;11813;50.834;4.280;2023-08-07T13:49:32;22.70;99.90
23289;DHT22;11813;50.834;4.280;2023-08-07T13:51:58;22.60;99.90
23289;DHT22;11813;50.834;4.280;2023-08-07T13:54:24;22.20;99.90
23289;DHT22;11813;50.834;4.280;2023-08-07T13:56:49;21.60;99.90
23289;DHT22;11813;50.834;4.280;2023-08-07T13:59:16;21.60;99.90
23289;DHT22;11813;50.834;4.280;2023-08-07T14:01:41;21.80;99.90
23289;DHT22;11813;50.834;4.280;2023-08-07T14:04:07;21.40;99.90
23289;DHT22;11813;50.834;4.280;2023-08-07T14:06:33;21.00;99.90
23289;DHT22;11813;50.834;4.280;2023-08-07T14:08:58;21.10;99.90
23289;DHT22;11813;50.834;4.280;2023-08-07T14:11:24;21.40;99.90
23289;DHT22;11813;50.834;4.280;2023-08-07T14:13:58;21.80;99.90
23289;DHT22;11813;50.834;4.280;2023-08-07T14:16:24;22.30;99.90
23289;DHT22;11813;50.834;4.280;2023-08-07T14:18:50;22.60;99.90
23289;DHT22;11813;50.834;4.280;2023-08-07T14:21:16;22.80;99.90
23289;DHT22;11813;50.834;4.280;2023-08-07T14:23:42;22.90;99.90
23289;DHT22;11813;50.834;4.280;2023-08-07T14:26:10;22.90;99.90
23289;DHT22;11813;50.834;4.280;2023-08-07T14:28:36;22.80;99.90
23289;DHT22;11813;50.834;4.280;2023-08-07T14:31:06;23.00;99.90
23289;DHT22;11813;50.834;4.280;2023-08-07T14:33:32;22.70;99.90
23289;DHT22;11813;50.834;4.280;2023-08-07T14:35:58;22.70;99.90
23289;DHT22;11813;50.834;4.280;2023-08-07T14:38:24;22.60;99.90
23289;DHT22;11813;50.834;4.280;2023-08-07T14:40:49;22.60;99.90
23289;DHT22;11813;50.834;4.280;2023-08-07T14:43:15;23.20;99.90
23289;DHT22;11813;50.834;4.280;2023-08-07T14:45:41;23.40;99.90
23289;DHT22;11813;50.834;4.280;2023-08-07T14:48:07;23.30;99.90
23289;DHT22;11813;50.834;4.280;2023-08-07T14:50:32;23.80;99.90
23289;DHT22;11813;50.834;4.280;2023-08-07T14:52:58;24.60;99.90
23289;DHT22;11813;50.834;4.280;2023-08-07T14:55:24;25.10;99.90
23289;DHT22;11813;50.834;4.280;2023-08-07T14:57:49;25.10;99.90
23289;DHT22;11813;50.834;4.280;2023-08-07T15:00:15;25.30;99.90
23289;DHT22;11813;50.834;4.280;2023-08-07T15:02:42;24.90;99.90
23289;DHT22;11813;50.834;4.280;2023-08-07T15:05:08;24.40;99.90
23289;DHT22;11813;50.834;4.280;2023-08-07T15:07:34;24.00;99.90
23289;DHT22;11813;50.834;4.280;2023-08-07T15:09:59;23.70;99.90
23289;DHT22;11813;50.834;4.280;2023-08-07T15:12:25;23.60;99.90
23289;DHT22;11813;50.834;4.280;2023-08-07T15:14:51;23.60;99.90
23289;DHT22;11813;50.834;4.280;2023-08-07T15:17:16;23.90;99.90
23289;DHT22;11813;50.834;4.280;2023-08-07T15:19:42;23.60;99.90
23289;DHT22;11813;50.834;4.280;2023-08-07T15:22:08;23.80;99.90
23289;DHT22;11813;50.834;4.280;2023-08-07T15:24:33;24.10;99.90
23289;DHT22;11813;50.834;4.280;2023-08-07T15:26:59;23.70;99.90
23289;DHT22;11813;50.834;4.280;2023-08-07T15:29:25;24.00;99.90
23289;DHT22;11813;50.834;4.280;2023-08-07T15:31:50;23.90;99.90
23289;DHT22;11813;50.834;4.280;2023-08-07T15:34:16;23.80;99.90
23289;DHT22;11813;50.834;4.280;2023-08-07T15:36:41;23.90;99.90